sensor_id;sensor_type;location;lat;lon;timestamp;P1;durP1;ratioP1;P2;durP2;ratioP2
25155;SDS011;21913;52.456;13.634;2022-11-10T00:02:49;2.85;;;1.00;;
25155;SDS011;21913;52.456;13.634;2022-11-10T00:08:10;1.90;;;0.90;;
25155;SDS011;21913;52.456;13.634;2022-11-10T00:13:32;2.50;;;0.82;;
25155;SDS011;21913;52.456;13.634;2022-11-10T00:18:56;1.80;;;0.88;;
25155;SDS011;21913;52.456;13.634;2022-11-10T00:29:37;1.83;;;0.90;;
25155;SDS011;21913;52.456;13.634;2022-11-10T00:34:57;1.63;;;0.70;;
25155;SDS011;21913;52.456;13.634;2022-11-10T00:40:17;1.70;;;0.80;;
25155;SDS011;21913;52.456;13.634;2022-11-10T00:45:39;1.30;;;0.70;;
25155;SDS011;21913;52.456;13.634;2022-11-10T00:51:00;2.25;;;0.90;;
25155;SDS011;21913;52.456;13.634;2022-11-10T00:56:20;1.95;;;0.80;;
25155;SDS011;21913;52.456;13.634;2022-11-10T01:01:41;3.35;;;0.80;;
25155;SDS011;21913;52.456;13.634;2022-11-10T01:07:02;3.20;;;0.60;;
25155;SDS011;21913;52.456;13.634;2022-11-10T01:12:22;1.67;;;0.70;;
25155;SDS011;21913;52.456;13.634;2022-11-10T01:17:42;1.17;;;0.68;;
25155;SDS011;21913;52.456;13.634;2022-11-10T01:23:02;3.75;;;0.80;;
25155;SDS011;21913;52.456;13.634;2022-11-10T01:28:22;1.08;;;0.60;;
25155;SDS011;21913;52.456;13.634;2022-11-10T01:33:42;2.60;;;0.80;;
25155;SDS011;21913;52.456;13.634;2022-11-10T01:39:02;1.33;;;0.73;;
25155;SDS011;21913;52.456;13.634;2022-11-10T01:44:23;1.60;;;0.70;;
25155;SDS011;21913;52.456;13.634;2022-11-10T01:49:44;1.20;;;0.70;;
25155;SDS011;21913;52.456;13.634;2022-11-10T01:55:04;1.90;;;0.75;;
25155;SDS011;21913;52.456;13.634;2022-11-10T02:00:25;1.67;;;0.80;;
25155;SDS011;21913;52.456;13.634;2022-11-10T02:05:45;2.55;;;1.00;;
25155;SDS011;21913;52.456;13.634;2022-11-10T02:11:05;1.85;;;0.70;;
25155;SDS011;21913;52.456;13.634;2022-11-10T02:16:25;1.88;;;0.98;;
25155;SDS011;21913;52.456;13.634;2022-11-10T02:21:45;4.00;;;0.88;;
25155;SDS011;21913;52.456;13.634;2022-11-10T02:32:26;2.97;;;0.80;;
25155;SDS011;21913;52.456;13.634;2022-11-10T02:37:46;2.78;;;0.95;;
25155;SDS011;21913;52.456;13.634;2022-11-10T02:43:07;1.70;;;0.80;;
25155;SDS011;21913;52.456;13.634;2022-11-10T02:48:30;1.77;;;0.80;;
25155;SDS011;21913;52.456;13.634;2022-11-10T02:53:50;1.73;;;0.80;;
25155;SDS011;21913;52.456;13.634;2022-11-10T02:59:10;1.20;;;0.70;;
25155;SDS011;21913;52.456;13.634;2022-11-10T03:04:30;2.10;;;1.00;;
25155;SDS011;21913;52.456;13.634;2022-11-10T03:09:50;2.47;;;0.80;;
25155;SDS011;21913;52.456;13.634;2022-11-10T03:15:10;1.60;;;0.70;;
25155;SDS011;21913;52.456;13.634;2022-11-10T03:20:30;3.13;;;1.02;;
25155;SDS011;21913;52.456;13.634;2022-11-10T03:25:50;2.03;;;0.90;;
25155;SDS011;21913;52.456;13.634;2022-11-10T03:31:10;4.00;;;1.00;;
25155;SDS011;21913;52.456;13.634;2022-11-10T03:36:30;2.40;;;0.80;;
25155;SDS011;21913;52.456;13.634;2022-11-10T03:41:50;2.85;;;0.82;;
25155;SDS011;21913;52.456;13.634;2022-11-10T03:47:10;1.80;;;0.80;;
25155;SDS011;21913;52.456;13.634;2022-11-10T03:52:30;2.20;;;0.80;;
25155;SDS011;21913;52.456;13.634;2022-11-10T03:57:51;4.55;;;1.00;;
25155;SDS011;21913;52.456;13.634;2022-11-10T04:03:11;1.95;;;0.80;;
25155;SDS011;21913;52.456;13.634;2022-11-10T04:08:32;1.80;;;0.90;;
25155;SDS011;21913;52.456;13.634;2022-11-10T04:13:52;2.20;;;1.00;;
25155;SDS011;21913;52.456;13.634;2022-11-10T04:19:12;2.85;;;0.85;;
25155;SDS011;21913;52.456;13.634;2022-11-10T04:29:52;1.73;;;0.85;;
25155;SDS011;21913;52.456;13.634;2022-11-10T04:35:12;2.10;;;0.88;;
25155;SDS011;21913;52.456;13.634;2022-11-10T04:40:32;1.98;;;0.90;;
25155;SDS011;21913;52.456;13.634;2022-11-10T04:45:52;2.23;;;1.00;;
25155;SDS011;21913;52.456;13.634;2022-11-10T04:51:13;2.50;;;0.82;;
25155;SDS011;21913;52.456;13.634;2022-11-10T04:56:34;2.20;;;0.70;;
25155;SDS011;21913;52.456;13.634;2022-11-10T05:01:54;2.10;;;0.80;;
25155;SDS011;21913;52.456;13.634;2022-11-10T05:07:14;1.75;;;0.82;;
25155;SDS011;21913;52.456;13.634;2022-11-10T05:12:35;2.35;;;0.88;;
25155;SDS011;21913;52.456;13.634;2022-11-10T05:17:55;2.47;;;1.00;;
25155;SDS011;21913;52.456;13.634;2022-11-10T05:23:15;2.63;;;0.93;;
25155;SDS011;21913;52.456;13.634;2022-11-10T05:28:35;1.80;;;0.90;;
25155;SDS011;21913;52.456;13.634;2022-11-10T05:39:16;1.77;;;0.80;;
25155;SDS011;21913;52.456;13.634;2022-11-10T05:44:35;2.40;;;0.90;;
25155;SDS011;21913;52.456;13.634;2022-11-10T05:49:55;1.85;;;0.80;;
25155;SDS011;21913;52.456;13.634;2022-11-10T05:55:17;2.35;;;0.93;;
25155;SDS011;21913;52.456;13.634;2022-11-10T06:00:39;1.75;;;0.88;;
25155;SDS011;21913;52.456;13.634;2022-11-10T06:05:59;2.22;;;1.00;;
25155;SDS011;21913;52.456;13.634;2022-11-10T06:11:19;1.77;;;0.88;;
25155;SDS011;21913;52.456;13.634;2022-11-10T06:16:39;3.67;;;0.95;;
25155;SDS011;21913;52.456;13.634;2022-11-10T06:21:59;1.97;;;0.73;;
25155;SDS011;21913;52.456;13.634;2022-11-10T06:27:21;1.65;;;0.70;;
25155;SDS011;21913;52.456;13.634;2022-11-10T06:32:41;2.28;;;0.90;;
25155;SDS011;21913;52.456;13.634;2022-11-10T06:38:03;2.33;;;0.82;;
25155;SDS011;21913;52.456;13.634;2022-11-10T06:43:28;1.95;;;0.80;;
25155;SDS011;21913;52.456;13.634;2022-11-10T06:48:48;2.17;;;0.80;;
25155;SDS011;21913;52.456;13.634;2022-11-10T06:54:08;2.88;;;0.95;;
25155;SDS011;21913;52.456;13.634;2022-11-10T06:59:28;1.92;;;0.90;;
25155;SDS011;21913;52.456;13.634;2022-11-10T07:04:48;2.55;;;0.93;;
25155;SDS011;21913;52.456;13.634;2022-11-10T07:10:08;3.60;;;1.20;;
25155;SDS011;21913;52.456;13.634;2022-11-10T07:15:29;1.85;;;0.95;;
25155;SDS011;21913;52.456;13.634;2022-11-10T07:20:49;2.70;;;0.95;;
25155;SDS011;21913;52.456;13.634;2022-11-10T07:26:09;2.63;;;0.93;;
25155;SDS011;21913;52.456;13.634;2022-11-10T07:31:29;2.72;;;0.75;;
25155;SDS011;21913;52.456;13.634;2022-11-10T07:36:50;2.28;;;1.10;;
25155;SDS011;21913;52.456;13.634;2022-11-10T07:42:10;2.65;;;0.90;;
25155;SDS011;21913;52.456;13.634;2022-11-10T07:47:30;2.17;;;0.90;;
25155;SDS011;21913;52.456;13.634;2022-11-10T07:52:50;2.00;;;0.90;;
25155;SDS011;21913;52.456;13.634;2022-11-10T07:58:14;1.63;;;0.80;;
25155;SDS011;21913;52.456;13.634;2022-11-10T08:03:36;2.47;;;0.90;;
25155;SDS011;21913;52.456;13.634;2022-11-10T08:08:56;1.92;;;0.77;;
25155;SDS011;21913;52.456;13.634;2022-11-10T08:19:37;2.15;;;0.90;;
25155;SDS011;21913;52.456;13.634;2022-11-10T08:24:57;2.10;;;0.85;;
25155;SDS011;21913;52.456;13.634;2022-11-10T08:30:17;2.33;;;1.10;;
25155;SDS011;21913;52.456;13.634;2022-11-10T08:35:38;2.95;;;1.05;;
25155;SDS011;21913;52.456;13.634;2022-11-10T08:41:00;3.00;;;0.82;;
25155;SDS011;21913;52.456;13.634;2022-11-10T08:46:20;2.78;;;1.00;;
25155;SDS011;21913;52.456;13.634;2022-11-10T08:51:40;2.78;;;0.80;;
25155;SDS011;21913;52.456;13.634;2022-11-10T08:57:00;1.83;;;0.90;;
25155;SDS011;21913;52.456;13.634;2022-11-10T09:02:20;2.65;;;0.95;;
25155;SDS011;21913;52.456;13.634;2022-11-10T09:07:44;2.28;;;0.95;;
25155;SDS011;21913;52.456;13.634;2022-11-10T09:13:05;2.20;;;1.00;;
25155;SDS011;21913;52.456;13.634;2022-11-10T09:18:25;1.83;;;0.70;;
25155;SDS011;21913;52.456;13.634;2022-11-10T09:23:45;1.58;;;0.95;;
25155;SDS011;21913;52.456;13.634;2022-11-10T09:29:07;2.42;;;0.90;;
25155;SDS011;21913;52.456;13.634;2022-11-10T09:34:26;2.83;;;1.00;;
25155;SDS011;21913;52.456;13.634;2022-11-10T09:39:47;2.70;;;1.02;;
25155;SDS011;21913;52.456;13.634;2022-11-10T09:45:20;3.55;;;1.10;;
25155;SDS011;21913;52.456;13.634;2022-11-10T09:51:01;6.13;;;1.13;;
25155;SDS011;21913;52.456;13.634;2022-11-10T09:56:38;2.42;;;0.95;;
25155;SDS011;21913;52.456;13.634;2022-11-10T10:08:08;2.05;;;0.88;;
25155;SDS011;21913;52.456;13.634;2022-11-10T10:13:45;2.10;;;1.00;;
25155;SDS011;21913;52.456;13.634;2022-11-10T10:24:51;4.68;;;1.00;;
25155;SDS011;21913;52.456;13.634;2022-11-10T10:30:17;2.33;;;0.90;;
25155;SDS011;21913;52.456;13.634;2022-11-10T10:35:39;2.10;;;0.70;;
25155;SDS011;21913;52.456;13.634;2022-11-10T10:41:03;1.50;;;0.80;;
25155;SDS011;21913;52.456;13.634;2022-11-10T10:46:32;1.92;;;0.88;;
25155;SDS011;21913;52.456;13.634;2022-11-10T10:57:34;2.35;;;1.00;;
25155;SDS011;21913;52.456;13.634;2022-11-10T11:03:04;1.38;;;0.77;;
25155;SDS011;21913;52.456;13.634;2022-11-10T11:08:25;2.25;;;0.88;;
25155;SDS011;21913;52.456;13.634;2022-11-10T11:13:46;2.55;;;0.90;;
25155;SDS011;21913;52.456;13.634;2022-11-10T11:19:07;1.67;;;0.70;;
25155;SDS011;21913;52.456;13.634;2022-11-10T11:30:07;2.08;;;0.90;;
25155;SDS011;21913;52.456;13.634;2022-11-10T12:09:42;2.00;;;0.85;;
25155;SDS011;21913;52.456;13.634;2022-11-10T12:26:14;8.32;;;1.77;;
25155;SDS011;21913;52.456;13.634;2022-11-10T12:31:36;6.20;;;1.73;;
25155;SDS011;21913;52.456;13.634;2022-11-10T12:37:00;6.38;;;1.73;;
25155;SDS011;21913;52.456;13.634;2022-11-10T12:42:24;6.82;;;1.90;;
25155;SDS011;21913;52.456;13.634;2022-11-10T12:47:47;6.88;;;1.83;;
25155;SDS011;21913;52.456;13.634;2022-11-10T12:53:10;4.65;;;1.20;;
25155;SDS011;21913;52.456;13.634;2022-11-10T12:58:37;5.95;;;1.70;;
25155;SDS011;21913;52.456;13.634;2022-11-10T13:03:57;7.35;;;1.60;;
25155;SDS011;21913;52.456;13.634;2022-11-10T13:09:35;5.63;;;1.48;;
25155;SDS011;21913;52.456;13.634;2022-11-10T13:14:58;4.05;;;1.20;;
25155;SDS011;21913;52.456;13.634;2022-11-10T13:25:58;4.72;;;1.50;;
25155;SDS011;21913;52.456;13.634;2022-11-10T13:36:48;3.70;;;1.20;;
25155;SDS011;21913;52.456;13.634;2022-11-10T13:58:59;4.82;;;1.23;;
25155;SDS011;21913;52.456;13.634;2022-11-10T14:10:03;4.17;;;1.30;;
25155;SDS011;21913;52.456;13.634;2022-11-10T14:15:33;3.78;;;1.27;;
25155;SDS011;21913;52.456;13.634;2022-11-10T14:20:56;4.05;;;1.40;;
25155;SDS011;21913;52.456;13.634;2022-11-10T14:26:22;4.22;;;1.40;;
25155;SDS011;21913;52.456;13.634;2022-11-10T14:31:46;3.55;;;1.20;;
25155;SDS011;21913;52.456;13.634;2022-11-10T14:37:11;2.47;;;1.20;;
25155;SDS011;21913;52.456;13.634;2022-11-10T14:42:35;4.60;;;1.30;;
25155;SDS011;21913;52.456;13.634;2022-11-10T14:47:58;3.13;;;1.10;;
25155;SDS011;21913;52.456;13.634;2022-11-10T14:53:29;3.30;;;1.20;;
25155;SDS011;21913;52.456;13.634;2022-11-10T14:58:55;2.80;;;1.10;;
25155;SDS011;21913;52.456;13.634;2022-11-10T15:04:16;3.53;;;1.20;;
25155;SDS011;21913;52.456;13.634;2022-11-10T15:09:37;3.60;;;1.30;;
25155;SDS011;21913;52.456;13.634;2022-11-10T15:14:59;4.30;;;1.40;;
25155;SDS011;21913;52.456;13.634;2022-11-10T15:20:33;3.30;;;1.10;;
25155;SDS011;21913;52.456;13.634;2022-11-10T15:25:56;4.25;;;1.30;;
25155;SDS011;21913;52.456;13.634;2022-11-10T15:31:20;3.25;;;0.90;;
25155;SDS011;21913;52.456;13.634;2022-11-10T15:36:43;2.67;;;0.93;;
25155;SDS011;21913;52.456;13.634;2022-11-10T15:42:10;2.10;;;0.82;;
25155;SDS011;21913;52.456;13.634;2022-11-10T15:47:41;2.35;;;1.00;;
25155;SDS011;21913;52.456;13.634;2022-11-10T15:53:03;4.93;;;1.23;;
25155;SDS011;21913;52.456;13.634;2022-11-10T15:58:27;4.88;;;1.42;;
25155;SDS011;21913;52.456;13.634;2022-11-10T16:03:47;5.03;;;1.20;;
25155;SDS011;21913;52.456;13.634;2022-11-10T16:09:11;4.07;;;1.27;;
25155;SDS011;21913;52.456;13.634;2022-11-10T16:14:31;6.95;;;1.58;;
25155;SDS011;21913;52.456;13.634;2022-11-10T16:19:51;3.50;;;1.52;;
25155;SDS011;21913;52.456;13.634;2022-11-10T16:25:12;3.83;;;1.20;;
25155;SDS011;21913;52.456;13.634;2022-11-10T16:30:36;6.97;;;1.42;;
25155;SDS011;21913;52.456;13.634;2022-11-10T16:35:57;3.58;;;1.10;;
25155;SDS011;21913;52.456;13.634;2022-11-10T16:41:17;4.20;;;1.30;;
25155;SDS011;21913;52.456;13.634;2022-11-10T16:46:38;3.80;;;1.15;;
25155;SDS011;21913;52.456;13.634;2022-11-10T16:52:06;3.65;;;1.13;;
25155;SDS011;21913;52.456;13.634;2022-11-10T16:57:32;4.30;;;1.40;;
25155;SDS011;21913;52.456;13.634;2022-11-10T17:08:17;3.75;;;1.00;;
25155;SDS011;21913;52.456;13.634;2022-11-10T17:13:46;3.20;;;1.02;;
25155;SDS011;21913;52.456;13.634;2022-11-10T17:24:32;1.85;;;0.90;;
25155;SDS011;21913;52.456;13.634;2022-11-10T17:29:54;2.65;;;1.00;;
25155;SDS011;21913;52.456;13.634;2022-11-10T17:35:14;2.60;;;1.05;;
25155;SDS011;21913;52.456;13.634;2022-11-10T17:40:35;3.83;;;1.23;;
25155;SDS011;21913;52.456;13.634;2022-11-10T17:45:55;2.58;;;1.05;;
25155;SDS011;21913;52.456;13.634;2022-11-10T17:51:17;2.70;;;1.10;;
25155;SDS011;21913;52.456;13.634;2022-11-10T17:56:38;2.42;;;1.02;;
25155;SDS011;21913;52.456;13.634;2022-11-10T18:01:59;2.05;;;0.90;;
25155;SDS011;21913;52.456;13.634;2022-11-10T18:07:19;3.65;;;1.20;;
25155;SDS011;21913;52.456;13.634;2022-11-10T18:12:39;3.25;;;1.00;;
25155;SDS011;21913;52.456;13.634;2022-11-10T18:17:59;2.55;;;1.10;;
25155;SDS011;21913;52.456;13.634;2022-11-10T18:23:20;2.80;;;1.00;;
25155;SDS011;21913;52.456;13.634;2022-11-10T18:34:00;2.75;;;1.05;;
25155;SDS011;21913;52.456;13.634;2022-11-10T18:44:40;4.32;;;1.55;;
25155;SDS011;21913;52.456;13.634;2022-11-10T18:50:01;4.07;;;1.58;;
25155;SDS011;21913;52.456;13.634;2022-11-10T18:55:21;6.15;;;1.63;;
25155;SDS011;21913;52.456;13.634;2022-11-10T19:00:41;5.38;;;1.60;;
25155;SDS011;21913;52.456;13.634;2022-11-10T19:06:01;3.50;;;1.50;;
25155;SDS011;21913;52.456;13.634;2022-11-10T19:11:21;5.22;;;1.75;;
25155;SDS011;21913;52.456;13.634;2022-11-10T19:16:42;3.78;;;1.25;;
25155;SDS011;21913;52.456;13.634;2022-11-10T19:22:02;3.22;;;1.50;;
25155;SDS011;21913;52.456;13.634;2022-11-10T19:27:22;5.05;;;1.40;;
25155;SDS011;21913;52.456;13.634;2022-11-10T19:32:42;3.45;;;1.50;;
25155;SDS011;21913;52.456;13.634;2022-11-10T19:38:02;4.88;;;1.50;;
25155;SDS011;21913;52.456;13.634;2022-11-10T19:43:22;4.65;;;1.38;;
25155;SDS011;21913;52.456;13.634;2022-11-10T19:54:03;4.00;;;1.57;;
25155;SDS011;21913;52.456;13.634;2022-11-10T19:59:28;2.42;;;1.30;;
25155;SDS011;21913;52.456;13.634;2022-11-10T20:04:49;4.38;;;1.60;;
25155;SDS011;21913;52.456;13.634;2022-11-10T20:10:09;2.72;;;1.10;;
25155;SDS011;21913;52.456;13.634;2022-11-10T20:20:49;3.78;;;1.30;;
25155;SDS011;21913;52.456;13.634;2022-11-10T20:31:31;3.28;;;1.50;;
25155;SDS011;21913;52.456;13.634;2022-11-10T20:36:52;3.35;;;1.20;;
25155;SDS011;21913;52.456;13.634;2022-11-10T20:42:13;2.55;;;1.30;;
25155;SDS011;21913;52.456;13.634;2022-11-10T20:47:34;4.03;;;1.40;;
25155;SDS011;21913;52.456;13.634;2022-11-10T20:52:54;5.80;;;1.70;;
25155;SDS011;21913;52.456;13.634;2022-11-10T20:58:14;3.25;;;1.40;;
25155;SDS011;21913;52.456;13.634;2022-11-10T21:03:34;2.75;;;1.30;;
25155;SDS011;21913;52.456;13.634;2022-11-10T21:08:55;3.80;;;1.38;;
25155;SDS011;21913;52.456;13.634;2022-11-10T21:14:15;3.90;;;1.40;;
25155;SDS011;21913;52.456;13.634;2022-11-10T21:19:35;4.03;;;1.40;;
25155;SDS011;21913;52.456;13.634;2022-11-10T21:30:15;2.65;;;1.23;;
25155;SDS011;21913;52.456;13.634;2022-11-10T21:35:36;3.20;;;1.27;;
25155;SDS011;21913;52.456;13.634;2022-11-10T21:40:57;2.45;;;1.20;;
25155;SDS011;21913;52.456;13.634;2022-11-10T21:46:17;2.80;;;1.30;;
25155;SDS011;21913;52.456;13.634;2022-11-10T21:51:37;2.55;;;1.30;;
25155;SDS011;21913;52.456;13.634;2022-11-10T21:56:57;3.65;;;1.30;;
25155;SDS011;21913;52.456;13.634;2022-11-10T22:02:17;3.55;;;1.33;;
25155;SDS011;21913;52.456;13.634;2022-11-10T22:07:37;2.10;;;1.15;;
25155;SDS011;21913;52.456;13.634;2022-11-10T22:12:57;2.40;;;1.27;;
25155;SDS011;21913;52.456;13.634;2022-11-10T22:18:18;5.07;;;1.38;;
25155;SDS011;21913;52.456;13.634;2022-11-10T22:23:37;2.78;;;1.40;;
25155;SDS011;21913;52.456;13.634;2022-11-10T22:28:58;3.45;;;1.50;;
25155;SDS011;21913;52.456;13.634;2022-11-10T22:34:18;4.15;;;1.70;;
25155;SDS011;21913;52.456;13.634;2022-11-10T22:39:38;4.65;;;1.55;;
25155;SDS011;21913;52.456;13.634;2022-11-10T22:44:59;3.25;;;1.30;;
25155;SDS011;21913;52.456;13.634;2022-11-10T22:50:19;3.80;;;1.67;;
25155;SDS011;21913;52.456;13.634;2022-11-10T22:55:39;3.45;;;1.42;;
25155;SDS011;21913;52.456;13.634;2022-11-10T23:01:03;2.97;;;1.40;;
25155;SDS011;21913;52.456;13.634;2022-11-10T23:06:27;3.67;;;1.55;;
25155;SDS011;21913;52.456;13.634;2022-11-10T23:11:50;4.30;;;1.35;;
25155;SDS011;21913;52.456;13.634;2022-11-10T23:17:10;4.38;;;1.50;;
25155;SDS011;21913;52.456;13.634;2022-11-10T23:22:30;3.65;;;1.42;;
25155;SDS011;21913;52.456;13.634;2022-11-10T23:27:50;4.40;;;1.60;;
25155;SDS011;21913;52.456;13.634;2022-11-10T23:33:10;2.97;;;1.40;;
25155;SDS011;21913;52.456;13.634;2022-11-10T23:38:31;3.05;;;1.50;;
25155;SDS011;21913;52.456;13.634;2022-11-10T23:43:52;3.50;;;1.50;;
25155;SDS011;21913;52.456;13.634;2022-11-10T23:49:12;4.60;;;1.58;;
25155;SDS011;21913;52.456;13.634;2022-11-10T23:54:32;2.70;;;1.23;;
25155;SDS011;21913;52.456;13.634;2022-11-10T23:59:53;2.83;;;1.33;;
